Time;durP1;ratioP1;P1;durP2;ratioP2;P2;SDS_P1;SDS_P2;PMS_P1;PMS_P2;Temp;Humidity;BMP_temperature;BMP_pressure;BME280_temperature;BME280_humidity;BME280_pressure;Samples;Min_cycle;Max_cycle;Signal;HPM_P1;HPM_P2
2024/01/07 00:01:49;;;;;;;29.50;13.90;;;;;;;1.46;54.64;100055.15;108094;1256;72863;-66
2024/01/07 00:04:18;;;;;;;144.10;45.40;;;;;;;1.48;54.68;100051.86;108104;1251;69037;-65
2024/01/07 00:06:46;;;;;;;148.00;48.80;;;;;;;1.45;54.66;100057.23;108073;1251;71431;-65
2024/01/07 00:09:18;;;;;;;68.70;25.00;;;;;;;1.45;54.55;100056.02;108203;1257;60767;-67
2024/01/07 00:11:45;;;;;;;51.90;19.50;;;;;;;1.47;54.52;100061.39;108133;1251;60331;-66
2024/01/07 00:14:15;;;;;;;31.20;14.80;;;;;;;1.42;54.63;100066.05;108126;1251;73869;-66
2024/01/07 00:16:42;;;;;;;32.50;15.10;;;;;;;1.41;54.51;100070.89;108194;1251;69565;-66
2024/01/07 00:19:10;;;;;;;25.50;12.40;;;;;;;1.33;54.55;100075.41;108128;1251;71359;-68
2024/01/07 00:21:38;;;;;;;35.10;14.50;;;;;;;1.26;54.44;100076.44;107920;1252;60533;-65
2024/01/07 00:24:06;;;;;;;34.90;15.50;;;;;;;1.36;54.27;100082.33;108097;1251;60332;-66
2024/01/07 00:26:33;;;;;;;32.40;14.70;;;;;;;1.38;54.16;100084.21;108165;1251;73823;-66
2024/01/07 00:29:00;;;;;;;29.90;15.00;;;;;;;1.31;54.36;100081.11;108138;1251;68052;-66
2024/01/07 00:31:29;;;;;;;40.00;16.50;;;;;;;1.29;54.38;100085.09;108177;1257;71158;-65
2024/01/07 00:33:58;;;;;;;29.80;14.30;;;;;;;1.33;54.28;100084.56;108104;1258;60498;-67
2024/01/07 00:36:25;;;;;;;40.60;16.40;;;;;;;1.38;54.16;100086.30;108015;1253;60410;-67
2024/01/07 00:38:53;;;;;;;31.40;14.80;;;;;;;1.34;54.06;100085.09;108022;1253;73878;-66
2024/01/07 00:41:20;;;;;;;35.40;14.70;;;;;;;1.23;54.33;100084.57;108092;1256;68876;-66
2024/01/07 00:43:48;;;;;;;26.90;13.10;;;;;;;1.22;54.27;100085.77;107968;1254;72658;-66
2024/01/07 00:46:15;;;;;;;33.00;14.90;;;;;;;1.21;54.36;100084.73;108004;1254;60563;-67
2024/01/07 00:48:43;;;;;;;28.50;13.10;;;;;;;1.28;54.28;100097.36;108070;1254;60174;-67
2024/01/07 00:51:11;;;;;;;25.80;13.00;;;;;;;1.31;54.35;100096.52;108149;1254;71662;-65
2024/01/07 00:53:38;;;;;;;27.30;12.70;;;;;;;1.30;54.34;100093.38;108027;1254;70134;-65
2024/01/07 00:56:06;;;;;;;27.00;13.30;;;;;;;1.28;54.44;100087.34;108107;1251;72707;-67
2024/01/07 00:58:33;;;;;;;24.70;11.90;;;;;;;1.25;54.56;100089.59;108228;1251;60747;-66
2024/01/07 01:01:01;;;;;;;28.50;12.60;;;;;;;1.28;54.64;100092.19;108111;1251;60030;-67
2024/01/07 01:03:29;;;;;;;29.30;13.10;;;;;;;1.19;54.56;100088.55;108194;1251;72356;-66
2024/01/07 01:05:57;;;;;;;23.70;12.00;;;;;;;1.03;54.63;100094.92;108190;1251;69197;-65
2024/01/07 01:08:24;;;;;;;29.60;13.50;;;;;;;0.99;54.86;100101.84;108149;1251;72775;-66
2024/01/07 01:10:52;;;;;;;26.70;13.20;;;;;;;0.93;54.67;100103.39;108078;1251;61709;-68
2024/01/07 01:13:19;;;;;;;27.90;12.40;;;;;;;0.85;54.84;100105.80;108207;1251;60322;-67
2024/01/07 01:15:47;;;;;;;29.10;13.10;;;;;;;0.89;54.71;100115.30;108063;1251;72669;-66
2024/01/07 01:18:14;;;;;;;22.70;12.40;;;;;;;0.93;54.51;100118.08;108171;1251;68717;-68
2024/01/07 01:20:42;;;;;;;29.80;13.70;;;;;;;0.88;54.53;100116.34;108002;1255;70111;-65
2024/01/07 01:23:09;;;;;;;28.60;13.40;;;;;;;0.82;54.68;100124.11;108112;1251;62158;-67
2024/01/07 01:25:39;;;;;;;27.40;13.00;;;;;;;0.84;54.67;100118.58;108068;1252;60323;-65
2024/01/07 01:28:07;;;;;;;28.90;13.60;;;;;;;0.85;54.54;100117.19;108129;1251;73894;-64
2024/01/07 01:30:35;;;;;;;50.40;21.10;;;;;;;0.82;54.99;100112.88;108131;1251;69621;-66
2024/01/07 01:33:03;;;;;;;38.10;16.50;;;;;;;0.80;54.85;100108.89;108033;1254;71591;-65
2024/01/07 01:35:31;;;;;;;32.20;14.00;;;;;;;0.83;55.03;100107.70;108064;1256;60468;-65
2024/01/07 01:37:58;;;;;;;30.90;15.00;;;;;;;0.86;54.97;100105.97;108086;1251;60338;-65
2024/01/07 01:40:26;;;;;;;29.90;14.10;;;;;;;0.88;55.06;100112.54;108115;1251;73994;-66
2024/01/07 01:42:53;;;;;;;25.40;13.10;;;;;;;0.88;55.02;100113.40;108078;1251;70429;-66
2024/01/07 01:45:21;;;;;;;26.60;12.90;;;;;;;0.74;54.93;100117.86;108070;1251;72661;-63
2024/01/07 01:47:49;;;;;;;30.50;13.60;;;;;;;0.78;54.80;100114.41;108153;1251;60471;-65
2024/01/07 01:50:17;;;;;;;30.20;13.90;;;;;;;0.87;54.74;100117.03;108100;1251;60300;-64
2024/01/07 01:52:45;;;;;;;30.70;14.40;;;;;;;0.97;54.48;100120.34;108148;1251;72542;-66
2024/01/07 01:55:13;;;;;;;29.00;14.00;;;;;;;0.98;54.06;100121.89;108045;1251;70185;-64
2024/01/07 01:57:41;;;;;;;27.80;14.10;;;;;;;0.98;53.78;100119.81;108108;1251;72391;-66
2024/01/07 02:00:09;;;;;;;38.00;15.30;;;;;;;1.01;53.54;100120.00;108102;1251;60402;-65
2024/01/07 02:02:37;;;;;;;27.40;14.10;;;;;;;0.93;53.38;100111.16;108151;1251;61032;-66
2024/01/07 02:05:05;;;;;;;27.30;13.20;;;;;;;0.84;53.31;100110.11;108067;1251;72915;-65
2024/01/07 02:07:33;;;;;;;29.00;13.80;;;;;;;0.78;53.10;100114.23;108126;1251;69918;-66
2024/01/07 02:10:00;;;;;;;27.40;12.60;;;;;;;0.71;53.26;100114.91;108078;1253;72057;-65
2024/01/07 02:12:28;;;;;;;30.70;13.90;;;;;;;0.60;53.34;100110.57;107998;1257;61834;-66
2024/01/07 02:14:56;;;;;;;31.70;14.40;;;;;;;0.50;53.05;100111.91;108045;1251;60238;-66
2024/01/07 02:17:24;;;;;;;31.10;14.80;;;;;;;0.43;53.08;100112.58;108031;1251;73800;-65
2024/01/07 02:19:51;;;;;;;32.80;15.60;;;;;;;0.31;53.44;100114.27;108025;1251;69295;-66
2024/01/07 02:22:19;;;;;;;30.50;14.80;;;;;;;0.32;53.45;100116.85;108142;1253;71644;-68
2024/01/07 02:24:47;;;;;;;29.30;13.60;;;;;;;0.38;53.28;100116.02;108157;1254;61662;-66
2024/01/07 02:27:14;;;;;;;30.70;15.60;;;;;;;0.34;53.59;100110.98;108287;1251;60319;-65
2024/01/07 02:29:42;;;;;;;32.60;15.70;;;;;;;0.36;53.26;100114.45;108142;1254;72673;-65
2024/01/07 02:32:09;;;;;;;35.80;15.70;;;;;;;0.33;53.61;100117.20;108227;1254;69964;-64
2024/01/07 02:34:37;;;;;;;26.40;13.60;;;;;;;0.18;53.60;100117.48;108156;1257;71540;-65
2024/01/07 02:37:04;;;;;;;26.70;13.10;;;;;;;0.18;53.60;100120.42;108098;1254;60447;-65
2024/01/07 02:39:32;;;;;;;24.70;12.60;;;;;;;0.15;53.50;100125.07;108187;1254;60304;-65
2024/01/07 02:41:59;;;;;;;27.90;13.60;;;;;;;0.16;53.52;100125.23;108062;1254;73891;-64
2024/01/07 02:44:27;;;;;;;25.40;12.50;;;;;;;0.15;53.36;100124.72;108123;1253;69331;-66
2024/01/07 02:46:55;;;;;;;24.00;12.70;;;;;;;0.19;53.10;100125.79;108069;1255;70808;-66
2024/01/07 02:49:22;;;;;;;21.70;12.20;;;;;;;-0.63;54.42;100131.73;108171;1253;61011;-65
2024/01/07 02:51:50;;;;;;;30.60;14.80;;;;;;;-1.28;56.08;100140.62;107915;1253;60290;-65
2024/01/07 02:54:18;;;;;;;26.70;12.50;;;;;;;-1.39;56.15;100146.35;107948;1253;72661;-64
2024/01/07 02:56:45;;;;;;;25.80;12.40;;;;;;;-1.66;56.77;100150.85;108028;1254;69330;-64
2024/01/07 02:59:13;;;;;;;26.30;12.70;;;;;;;-1.71;56.91;100151.98;108050;1254;72914;-64
2024/01/07 03:01:41;;;;;;;24.60;12.70;;;;;;;-1.37;55.90;100150.33;108207;1253;61643;-66
2024/01/07 03:04:10;;;;;;;25.10;12.10;;;;;;;-1.49;56.52;100146.58;108217;1253;60339;-65
2024/01/07 03:06:38;;;;;;;22.90;11.70;;;;;;;-1.53;56.34;100146.34;108192;1253;74070;-67
2024/01/07 03:09:06;;;;;;;23.70;11.50;;;;;;;-1.80;56.96;100143.44;108123;1254;68844;-66
2024/01/07 03:11:33;;;;;;;24.90;12.40;;;;;;;-1.70;56.81;100145.62;108192;1253;72927;-66
2024/01/07 03:14:01;;;;;;;21.90;11.40;;;;;;;-1.74;57.02;100148.32;108214;1254;61682;-66
2024/01/07 03:16:28;;;;;;;24.00;11.20;;;;;;;-1.75;57.24;100148.48;108166;1253;60331;-66
2024/01/07 03:18:56;;;;;;;24.50;10.90;;;;;;;-1.69;57.33;100150.97;108119;1253;74046;-64
2024/01/07 03:21:24;;;;;;;21.80;11.40;;;;;;;-1.57;57.84;100152.16;108025;1258;69643;-66
2024/01/07 03:23:51;;;;;;;25.80;12.00;;;;;;;-1.42;58.07;100155.26;108046;1255;71219;-65
2024/01/07 03:26:19;;;;;;;21.50;11.30;;;;;;;-1.34;58.08;100151.40;108060;1253;61645;-64
2024/01/07 03:28:47;;;;;;;21.30;11.00;;;;;;;-1.29;58.09;100150.09;108055;1254;60305;-66
2024/01/07 03:31:15;;;;;;;24.60;12.30;;;;;;;-1.25;57.44;100149.95;108029;1251;73876;-66
2024/01/07 03:33:43;;;;;;;22.00;11.10;;;;;;;-1.12;56.77;100153.38;108159;1254;68316;-65
2024/01/07 03:36:12;;;;;;;24.00;11.40;;;;;;;-0.91;56.54;100162.20;108227;1254;72671;-65
2024/01/07 03:38:40;;;;;;;22.20;11.00;;;;;;;-0.80;56.24;100163.18;108097;1251;61611;-66
2024/01/07 03:41:07;;;;;;;20.60;11.20;;;;;;;-0.67;56.13;100161.57;108221;1251;60406;-65
2024/01/07 03:43:35;;;;;;;23.10;11.50;;;;;;;-0.55;55.71;100167.19;108137;1252;73923;-67
2024/01/07 03:46:02;;;;;;;21.10;10.40;;;;;;;-0.77;53.98;100172.00;108137;1251;69461;-65
2024/01/07 03:48:30;;;;;;;21.60;11.00;;;;;;;-0.90;53.60;100173.77;108252;1253;70426;-67
2024/01/07 03:50:57;;;;;;;21.70;10.60;;;;;;;-1.10;53.58;100177.87;108154;1251;60581;-67
2024/01/07 03:53:25;;;;;;;21.70;10.70;;;;;;;-1.10;53.75;100180.44;108223;1251;60402;-66
2024/01/07 03:55:52;;;;;;;23.50;11.40;;;;;;;-1.23;53.85;100184.44;108040;1251;72622;-67
2024/01/07 03:58:20;;;;;;;18.60;9.80;;;;;;;-1.42;53.99;100191.77;108073;1251;70627;-66
2024/01/07 04:00:47;;;;;;;22.10;11.40;;;;;;;-1.55;54.19;100195.74;108081;1251;72716;-67
2024/01/07 04:03:15;;;;;;;25.40;11.70;;;;;;;-1.64;54.44;100201.66;108103;1254;60860;-66
2024/01/07 04:05:45;;;;;;;22.90;11.30;;;;;;;-1.82;54.73;100199.86;108091;1251;59211;-64
2024/01/07 04:08:12;;;;;;;20.00;11.10;;;;;;;-1.93;55.14;100194.70;108176;1251;75000;-65
2024/01/07 04:10:40;;;;;;;19.20;10.50;;;;;;;-1.95;55.21;100193.65;108259;1253;70162;-65
2024/01/07 04:13:07;;;;;;;19.10;10.50;;;;;;;-1.80;55.02;100189.20;108147;1251;70801;-67
2024/01/07 04:15:35;;;;;;;18.90;10.40;;;;;;;-1.94;55.51;100190.91;108118;1251;60760;-65
2024/01/07 04:18:03;;;;;;;21.90;11.00;;;;;;;-2.06;55.20;100199.16;108303;1251;60107;-66
2024/01/07 04:20:31;;;;;;;21.30;10.70;;;;;;;-2.20;55.20;100200.49;108160;1251;73709;-65
2024/01/07 04:22:59;;;;;;;24.30;12.00;;;;;;;-2.34;55.30;100207.14;108133;1251;69949;-66
2024/01/07 04:25:26;;;;;;;20.00;10.70;;;;;;;-2.37;55.26;100207.11;108102;1253;72480;-65
2024/01/07 04:27:54;;;;;;;21.80;10.50;;;;;;;-2.35;55.61;100215.05;108117;1254;61678;-66
2024/01/07 04:30:22;;;;;;;20.80;11.20;;;;;;;-2.33;55.58;100219.04;108142;1251;59992;-66
2024/01/07 04:32:49;;;;;;;23.10;11.00;;;;;;;-2.39;55.60;100222.20;108191;1251;72832;-66
2024/01/07 04:35:17;;;;;;;21.50;10.50;;;;;;;-2.47;55.82;100223.77;108160;1251;68884;-65
2024/01/07 04:37:44;;;;;;;21.90;10.90;;;;;;;-2.63;55.97;100230.21;108139;1251;71920;-65
2024/01/07 04:40:12;;;;;;;27.90;11.20;;;;;;;-2.70;56.07;100241.41;108249;1251;60370;-64
2024/01/07 04:42:39;;;;;;;23.40;11.00;;;;;;;-2.78;55.60;100248.14;108236;1256;60313;-64
2024/01/07 04:45:08;;;;;;;21.70;10.60;;;;;;;-2.73;55.23;100253.05;108116;1251;72493;-65
2024/01/07 04:47:35;;;;;;;23.10;11.40;;;;;;;-2.14;54.28;100251.16;108070;1251;70385;-66
2024/01/07 04:50:04;;;;;;;22.90;10.70;;;;;;;-2.02;53.38;100247.91;108068;1251;72635;-65
2024/01/07 04:52:31;;;;;;;20.80;10.90;;;;;;;-1.81;52.37;100250.65;108074;1251;61174;-66
2024/01/07 04:54:59;;;;;;;29.50;11.40;;;;;;;-1.73;52.28;100250.60;108163;1251;60610;-67
2024/01/07 04:57:27;;;;;;;24.80;11.10;;;;;;;-1.73;52.33;100255.23;108048;1251;72528;-65
2024/01/07 04:59:54;;;;;;;29.90;12.00;;;;;;;-1.66;52.21;100258.25;108099;1251;69015;-66
2024/01/07 05:02:23;;;;;;;23.20;10.00;;;;;;;-1.65;51.92;100260.35;108290;1251;72467;-66
2024/01/07 05:04:50;;;;;;;27.20;12.00;;;;;;;-1.42;51.97;100258.77;108240;1254;60375;-65
2024/01/07 05:07:18;;;;;;;26.60;10.90;;;;;;;-1.27;51.32;100257.77;108104;1251;60477;-65
2024/01/07 05:09:46;;;;;;;15.90;8.50;;;;;;;-1.45;50.28;100257.00;108220;1251;73915;-66
2024/01/07 05:12:15;;;;;;;20.10;9.50;;;;;;;-1.51;50.11;100261.23;108107;1251;70187;-66
2024/01/07 05:14:46;;;;;;;22.40;9.80;;;;;;;-1.42;50.07;100257.91;108170;1254;72641;-65
2024/01/07 05:17:13;;;;;;;21.70;10.20;;;;;;;-1.26;50.28;100259.33;108098;1251;61662;-66
2024/01/07 05:19:43;;;;;;;20.90;9.40;;;;;;;-1.17;49.79;100258.41;108144;1251;60198;-66
2024/01/07 05:22:11;;;;;;;16.80;8.00;;;;;;;-1.13;49.33;100258.64;108164;1251;71680;-66
2024/01/07 05:24:38;;;;;;;19.40;8.40;;;;;;;-1.24;48.79;100261.25;108131;1251;69972;-65
2024/01/07 05:27:06;;;;;;;13.70;7.30;;;;;;;-1.44;48.50;100257.02;108155;1251;72854;-67
2024/01/07 05:29:34;;;;;;;15.40;8.40;;;;;;;-1.52;48.32;100260.70;108092;1251;61913;-67
2024/01/07 05:32:02;;;;;;;16.00;8.30;;;;;;;-1.60;48.90;100261.95;108176;1253;60464;-66
2024/01/07 05:34:30;;;;;;;16.90;8.70;;;;;;;-1.68;48.70;100270.30;108132;1253;72733;-66
2024/01/07 05:36:58;;;;;;;13.90;8.10;;;;;;;-1.73;48.97;100269.17;108080;1252;69468;-67
2024/01/07 05:39:25;;;;;;;17.70;8.80;;;;;;;-1.85;48.90;100267.96;108233;1253;72640;-67
2024/01/07 05:41:53;;;;;;;17.40;8.00;;;;;;;-1.87;49.01;100270.35;108150;1253;60438;-64
2024/01/07 05:44:20;;;;;;;15.80;8.70;;;;;;;-1.96;48.97;100278.46;107901;1253;289599;-66
2024/01/07 05:49:19;;;;;;;25.70;12.60;;;;;;;-4.72;56.59;100293.58;104964;1289;600555;-66
2024/01/07 05:51:47;;;;;;;28.20;14.60;;;;;;;-3.14;51.88;100280.42;107251;1263;60398;-66
2024/01/07 05:54:14;;;;;;;21.70;11.30;;;;;;;-2.80;50.88;100284.36;107241;1264;59588;-66
2024/01/07 05:56:42;;;;;;;17.10;10.00;;;;;;;-2.65;50.49;100285.52;107217;1264;71082;-66
2024/01/07 05:59:09;;;;;;;17.30;10.00;;;;;;;-2.65;50.23;100281.89;107255;1263;70389;-67
2024/01/07 06:01:37;;;;;;;13.70;8.00;;;;;;;-2.35;49.94;100275.73;107202;1264;72653;-66
2024/01/07 06:04:06;;;;;;;16.30;8.00;;;;;;;-2.34;49.99;100284.02;107228;1263;189104;-66
2024/01/07 06:06:34;;;;;;;13.60;7.70;;;;;;;-2.44;49.71;100287.80;107451;1263;59146;-67
2024/01/07 06:09:02;;;;;;;18.40;10.00;;;;;;;-2.41;49.23;100286.11;107417;1263;71895;-66
2024/01/07 06:11:30;;;;;;;30.10;11.00;;;;;;;-2.34;49.29;100286.92;107338;1263;70774;-65
2024/01/07 06:13:57;;;;;;;18.30;8.30;;;;;;;-2.22;49.30;100277.85;107373;1262;72653;-66
2024/01/07 06:16:25;;;;;;;70.40;21.70;;;;;;;-2.25;48.81;100279.54;107386;1263;60409;-66
2024/01/07 06:18:52;;;;;;;49.50;15.00;;;;;;;-2.16;49.25;100275.05;107362;1262;60003;-66
2024/01/07 06:21:20;;;;;;;33.20;13.20;;;;;;;-1.98;49.27;100281.52;107374;1262;73013;-66
2024/01/07 06:23:47;;;;;;;42.50;14.30;;;;;;;-2.00;48.11;100288.03;107381;1262;70256;-66
2024/01/07 06:26:15;;;;;;;49.80;14.50;;;;;;;-2.18;48.29;100291.69;107362;1262;70111;-66
2024/01/07 06:28:42;;;;;;;47.30;15.20;;;;;;;-2.23;48.19;100291.95;107365;1264;61848;-66
2024/01/07 06:31:10;;;;;;;41.50;12.10;;;;;;;-2.24;48.58;100295.54;107375;1263;59130;-66
2024/01/07 06:33:38;;;;;;;31.30;11.20;;;;;;;-2.21;48.32;100297.66;107401;1263;75455;-69
2024/01/07 06:36:06;;;;;;;59.50;15.10;;;;;;;-2.19;48.11;100297.34;107470;1262;68838;-66
2024/01/07 06:38:33;;;;;;;29.00;10.50;;;;;;;-2.29;48.21;100295.61;107390;1263;72700;-67
2024/01/07 06:41:04;;;;;;;30.30;12.00;;;;;;;-2.38;48.47;100294.44;107327;1263;61797;-67
2024/01/07 06:43:32;;;;;;;23.30;10.20;;;;;;;-2.46;48.22;100294.30;107384;1263;59546;-65
2024/01/07 06:45:59;;;;;;;27.80;10.40;;;;;;;-2.62;48.73;100298.13;108019;1253;73117;-67
2024/01/07 06:48:27;;;;;;;23.70;10.60;;;;;;;-2.71;48.89;100299.30;108117;1254;71066;-67
2024/01/07 06:50:55;;;;;;;29.30;10.80;;;;;;;-2.67;49.00;100303.35;108055;1253;72747;-67
2024/01/07 06:53:22;;;;;;;24.70;9.60;;;;;;;-2.67;49.43;100302.64;107999;1256;60497;-66
2024/01/07 06:55:50;;;;;;;19.20;9.20;;;;;;;-2.58;49.52;100308.34;108042;1253;60033;-66
2024/01/07 06:58:18;;;;;;;62.70;16.20;;;;;;;-2.51;49.28;100307.94;108042;1254;74823;-67
2024/01/07 07:00:46;;;;;;;78.60;20.40;;;;;;;-2.38;49.74;100303.20;107971;1253;70298;-65
2024/01/07 07:03:14;;;;;;;45.50;13.10;;;;;;;-2.27;49.70;100301.84;107922;1253;71430;-66
2024/01/07 07:05:41;;;;;;;28.60;13.00;;;;;;;-2.16;49.51;100298.09;107930;1253;60394;-66
2024/01/07 07:08:09;;;;;;;28.40;12.20;;;;;;;-2.14;48.97;100295.20;107965;1253;59021;-67
2024/01/07 07:10:36;;;;;;;33.00;14.10;;;;;;;-2.01;48.60;100294.05;107927;1253;73803;-66
2024/01/07 07:13:04;;;;;;;35.10;12.10;;;;;;;-1.88;48.67;100289.76;107905;1253;69643;-67
2024/01/07 07:15:32;;;;;;;44.30;15.20;;;;;;;-1.75;48.20;100292.04;107931;1259;71601;-67
2024/01/07 07:17:59;;;;;;;44.50;15.10;;;;;;;-1.68;47.84;100297.83;107917;1253;61704;-67
2024/01/07 07:20:27;;;;;;;39.90;14.00;;;;;;;-1.58;47.99;100302.28;108036;1253;59427;-66
2024/01/07 07:22:54;;;;;;;32.90;11.40;;;;;;;-1.78;47.01;100304.89;107961;1254;73066;-65
2024/01/07 07:25:22;;;;;;;22.10;9.20;;;;;;;-2.10;46.96;100313.67;107979;1253;68797;-66
2024/01/07 07:27:49;;;;;;;33.10;9.80;;;;;;;-2.13;47.17;100317.56;107984;1254;72694;-66
2024/01/07 07:30:18;;;;;;;42.30;13.00;;;;;;;-2.14;47.67;100318.06;107947;1253;60516;-67
2024/01/07 07:32:45;;;;;;;40.30;12.70;;;;;;;-2.21;47.54;100317.77;107802;1254;59348;-65
2024/01/07 07:35:13;;;;;;;52.20;15.30;;;;;;;-2.23;47.95;100317.07;107844;1254;73038;-66
2024/01/07 07:37:40;;;;;;;32.70;12.10;;;;;;;-2.31;47.81;100318.29;107844;1254;69015;-67
2024/01/07 07:40:09;;;;;;;29.60;11.40;;;;;;;-2.27;47.91;100316.63;107855;1256;72412;-67
2024/01/07 07:42:37;;;;;;;30.30;11.80;;;;;;;-2.46;47.63;100320.94;107878;1256;60368;-67
2024/01/07 07:45:05;;;;;;;30.90;11.20;;;;;;;-2.41;48.43;100312.45;107816;1254;60083;-66
2024/01/07 07:47:33;;;;;;;25.20;9.50;;;;;;;-2.39;48.21;100314.20;107893;1254;72917;-66
2024/01/07 07:50:02;;;;;;;44.40;12.60;;;;;;;-2.54;48.44;100319.58;107894;1254;69193;-66
2024/01/07 07:52:30;;;;;;;19.50;9.80;;;;;;;-2.60;48.49;100314.66;107952;1254;73226;-66
2024/01/07 07:54:58;;;;;;;27.60;11.60;;;;;;;-2.61;48.73;100314.98;107837;1256;60413;-66
2024/01/07 07:57:26;;;;;;;18.00;9.90;;;;;;;-2.60;48.73;100319.13;107871;1254;60193;-66
2024/01/07 07:59:54;;;;;;;48.50;17.40;;;;;;;-2.60;47.96;100326.17;107869;1254;71166;-67
2024/01/07 08:02:21;;;;;;;54.90;15.60;;;;;;;-2.53;48.10;100325.79;107865;1254;70577;-67
2024/01/07 08:04:49;;;;;;;59.60;17.60;;;;;;;-2.51;48.24;100322.39;108040;1253;72638;-66
2024/01/07 08:07:17;;;;;;;29.00;11.30;;;;;;;-2.36;48.36;100319.05;108015;1252;62126;-64
2024/01/07 08:09:44;;;;;;;35.40;12.80;;;;;;;-2.17;48.38;100319.06;108088;1253;60064;-66
2024/01/07 08:12:12;;;;;;;29.20;11.30;;;;;;;-1.97;47.99;100320.41;108111;1252;70710;-66
2024/01/07 08:14:41;;;;;;;21.40;9.70;;;;;;;-1.91;47.02;100320.17;108136;1253;70267;-66
2024/01/07 08:17:08;;;;;;;34.10;11.20;;;;;;;-1.77;47.04;100314.38;108128;1253;72654;-68
2024/01/07 08:19:36;;;;;;;36.00;12.00;;;;;;;-1.70;46.60;100319.30;108112;1253;60499;-66
2024/01/07 08:22:04;;;;;;;35.40;12.70;;;;;;;-1.78;45.80;100321.77;108193;1253;59499;-66
2024/01/07 08:24:32;;;;;;;26.70;10.90;;;;;;;-1.95;45.58;100333.54;108144;1252;71965;-66
2024/01/07 08:27:01;;;;;;;24.20;9.90;;;;;;;-2.08;46.09;100336.92;108030;1253;69209;-66
2024/01/07 08:29:29;;;;;;;31.70;12.20;;;;;;;-2.24;45.73;100335.27;108128;1254;72456;-67
2024/01/07 08:31:56;;;;;;;36.10;13.20;;;;;;;-2.29;46.20;100331.91;108072;1251;61679;-66
2024/01/07 08:34:24;;;;;;;24.10;10.20;;;;;;;-2.42;46.46;100333.91;108160;1251;59970;-66
2024/01/07 08:36:53;;;;;;;27.60;10.40;;;;;;;-2.41;46.17;100333.92;108164;1256;73007;-66
2024/01/07 08:39:21;;;;;;;39.60;14.90;;;;;;;-2.33;46.55;100327.02;108201;1257;68871;-66
2024/01/07 08:41:49;;;;;;;34.30;13.10;;;;;;;-2.33;46.78;100329.44;108201;1253;72856;-66
2024/01/07 08:44:16;;;;;;;33.80;12.20;;;;;;;-2.32;46.78;100333.40;108025;1251;61689;-66
2024/01/07 08:46:45;;;;;;;51.60;16.70;;;;;;;-2.19;46.13;100333.46;108080;1251;59546;-66
2024/01/07 08:49:13;;;;;;;27.10;14.10;;;;;;;-2.28;46.03;100338.13;108154;1251;73014;-68
2024/01/07 08:51:41;;;;;;;91.90;34.60;;;;;;;-2.33;46.13;100342.16;108201;1251;69351;-68
2024/01/07 08:54:09;;;;;;;51.30;15.70;;;;;;;-2.24;46.64;100343.17;108147;1255;71472;-66
2024/01/07 08:56:37;;;;;;;60.00;15.70;;;;;;;-2.11;46.70;100340.83;108212;1251;61680;-66
2024/01/07 08:59:04;;;;;;;34.30;10.80;;;;;;;-1.94;47.23;100332.88;108156;1251;59990;-66
2024/01/07 09:01:32;;;;;;;69.70;14.80;;;;;;;-1.79;46.76;100330.53;108165;1251;71765;-66
2024/01/07 09:03:59;;;;;;;36.10;11.60;;;;;;;-1.65;45.99;100329.19;108194;1257;69948;-66
2024/01/07 09:06:27;;;;;;;43.40;12.90;;;;;;;-1.56;45.92;100324.70;108235;1251;71679;-66
2024/01/07 09:08:55;;;;;;;25.50;10.90;;;;;;;-1.36;45.28;100317.05;108159;1251;60452;-66
2024/01/07 09:11:23;;;;;;;24.00;10.80;;;;;;;-1.48;44.62;100314.83;108174;1251;59631;-66
2024/01/07 09:13:51;;;;;;;34.40;13.20;;;;;;;-1.51;44.74;100313.74;108179;1251;73339;-66
2024/01/07 09:16:18;;;;;;;39.00;15.00;;;;;;;-1.53;44.20;100310.29;108176;1251;70463;-67
2024/01/07 09:18:46;;;;;;;28.10;12.10;;;;;;;-1.58;44.48;100311.58;108183;1251;72677;-68
2024/01/07 09:21:15;;;;;;;26.80;11.60;;;;;;;-1.62;44.17;100305.67;108135;1251;61722;-66
2024/01/07 09:23:44;;;;;;;33.80;12.60;;;;;;;-1.56;44.40;100306.27;108187;1251;60288;-68
2024/01/07 09:26:11;;;;;;;36.30;12.50;;;;;;;-1.54;44.21;100306.30;108249;1251;73997;-66
2024/01/07 09:28:39;;;;;;;33.50;12.90;;;;;;;-1.60;44.28;100302.60;108178;1251;70067;-66
2024/01/07 09:31:07;;;;;;;40.50;14.00;;;;;;;-1.54;44.24;100302.00;108104;1254;72696;-66
2024/01/07 09:33:35;;;;;;;35.20;14.40;;;;;;;-1.76;44.20;100305.27;107966;1254;60693;-66
2024/01/07 09:36:04;;;;;;;29.30;11.80;;;;;;;-1.93;44.49;100302.61;108057;1252;60139;-65
2024/01/07 09:38:47;;;;;;;62.20;25.80;;;;;;;-1.91;44.33;100304.71;108103;1255;73145;-67
2024/01/07 09:41:14;;;;;;;85.70;33.30;;;;;;;-1.96;44.47;100307.54;108038;1252;69960;-66
2024/01/07 09:43:42;;;;;;;70.50;17.90;;;;;;;-1.84;44.56;100308.41;107950;1253;74799;-66
2024/01/07 09:46:09;;;;;;;61.10;16.90;;;;;;;-1.77;44.46;100302.16;108043;1253;60436;-67
2024/01/07 09:48:37;;;;;;;31.90;13.50;;;;;;;-1.62;44.78;100306.36;107959;1254;60020;-68
2024/01/07 09:51:04;;;;;;;38.30;13.50;;;;;;;-1.61;44.67;100299.15;108104;1253;72892;-66
2024/01/07 09:53:32;;;;;;;40.60;14.80;;;;;;;-1.56;44.46;100301.80;108045;1253;70130;-66
2024/01/07 09:56:07;;;;;;;45.40;15.10;;;;;;;-1.45;45.31;100298.17;108026;1252;74021;-66
2024/01/07 09:58:35;;;;;;;32.00;12.40;;;;;;;-1.22;44.91;100294.88;108044;1253;61701;-67
2024/01/07 10:01:04;;;;;;;41.20;13.50;;;;;;;-1.03;45.00;100297.02;108063;1252;60451;-67
2024/01/07 10:03:32;;;;;;;42.10;13.80;;;;;;;-1.06;43.68;100294.55;108062;1252;72607;-66
2024/01/07 10:06:00;;;;;;;36.60;14.20;;;;;;;-1.15;43.45;100293.93;108067;1258;69342;-66
2024/01/07 10:08:27;;;;;;;42.80;14.50;;;;;;;-1.21;43.46;100296.42;108151;1254;70167;-65
2024/01/07 10:10:57;;;;;;;39.60;13.10;;;;;;;-1.27;43.78;100298.77;108092;1252;60581;-66
2024/01/07 10:13:25;;;;;;;39.40;13.60;;;;;;;-1.38;43.76;100301.88;108047;1253;60349;-67
2024/01/07 10:15:53;;;;;;;32.60;12.50;;;;;;;-1.51;43.01;100298.76;108111;1259;73117;-67
2024/01/07 10:18:20;;;;;;;60.80;14.80;;;;;;;-1.47;43.07;100300.02;108130;1252;69794;-67
2024/01/07 10:20:48;;;;;;;32.10;12.70;;;;;;;-1.54;43.31;100304.92;108165;1252;70496;-66
2024/01/07 10:23:19;;;;;;;54.50;15.10;;;;;;;-1.62;43.39;100304.98;108144;1254;61707;-68
2024/01/07 10:25:49;;;;;;;27.50;12.30;;;;;;;-1.67;43.71;100301.98;108128;1253;62286;-67
2024/01/07 10:28:17;;;;;;;29.90;11.90;;;;;;;-1.86;43.21;100294.44;108112;1252;73793;-67
2024/01/07 10:30:48;;;;;;;39.40;13.30;;;;;;;-1.88;43.54;100285.82;108103;1251;68585;-67
2024/01/07 10:33:17;;;;;;;27.60;11.10;;;;;;;-2.06;43.66;100289.65;108133;1258;71762;-66
2024/01/07 10:35:51;;;;;;;24.60;10.90;;;;;;;-2.13;43.79;100292.29;108164;1256;62245;-66
2024/01/07 10:38:19;;;;;;;28.30;11.90;;;;;;;-2.19;43.53;100290.29;108174;1251;60296;-68
2024/01/07 10:40:48;;;;;;;28.60;11.00;;;;;;;-2.35;43.65;100294.48;108197;1251;73998;-67
2024/01/07 10:43:15;;;;;;;78.90;23.20;;;;;;;-2.34;43.93;100292.78;108075;1253;69169;-66
2024/01/07 10:45:44;;;;;;;47.20;17.10;;;;;;;-2.44;44.27;100293.46;108171;1251;72728;-67
2024/01/07 10:48:13;;;;;;;15.80;7.50;;;;;;;-2.35;44.24;100292.60;108169;1253;61209;-67
2024/01/07 10:50:40;;;;;;;32.10;12.30;;;;;;;-2.16;44.38;100295.85;108124;1251;60451;-66
2024/01/07 10:53:08;;;;;;;25.80;11.70;;;;;;;-2.04;45.30;100294.51;108180;1251;73831;-67
2024/01/07 10:55:36;;;;;;;31.00;13.20;;;;;;;-1.90;44.70;100288.02;107991;1251;68843;-67
2024/01/07 10:58:04;;;;;;;26.00;11.20;;;;;;;-1.78;44.48;100283.20;108143;1253;71745;-67
2024/01/07 11:00:31;;;;;;;28.80;11.40;;;;;;;-1.77;44.33;100287.70;108023;1253;60385;-67
2024/01/07 11:03:18;;;;;;;25.90;11.50;;;;;;;-1.58;44.53;100280.23;108142;1251;60442;-68
2024/01/07 11:06:02;;;;;;;27.90;12.00;;;;;;;-1.46;43.46;100273.70;108180;1251;72654;-67
2024/01/07 11:08:34;;;;;;;21.10;10.10;;;;;;;-1.62;43.00;100273.47;108200;1252;70321;-67
2024/01/07 11:11:07;;;;;;;27.20;11.20;;;;;;;-1.62;43.46;100268.81;108203;1253;72450;-67